createdAt,value
2022-08-17T00:01:51.595Z,17.23
2022-08-17T00:04:21.093Z,16.23
2022-08-17T00:06:50.168Z,14.88
2022-08-17T00:09:19.355Z,16.77
2022-08-17T00:12:34.883Z,15.05
2022-08-17T00:14:37.496Z,17.33
2022-08-17T00:17:06.457Z,15.75
2022-08-17T00:19:34.200Z,16.52
2022-08-17T00:22:32.353Z,17.88
2022-08-17T00:24:51.001Z,18.08
2022-08-17T00:27:19.437Z,18.38
2022-08-17T00:29:47.128Z,18.67
2022-08-17T00:33:14.544Z,18.60
2022-08-17T00:35:08.914Z,19.27
2022-08-17T00:37:36.837Z,18.67
2022-08-17T00:40:05.278Z,18.63
2022-08-17T00:42:33.659Z,16.67
2022-08-17T00:45:01.463Z,19.40
2022-08-17T00:47:29.072Z,16.60
2022-08-17T00:49:56.728Z,18.08
2022-08-17T00:52:30.383Z,18.50
2022-08-17T00:54:59.290Z,18.92
2022-08-17T00:57:31.098Z,19.40
2022-08-17T01:00:09.213Z,17.55
2022-08-17T01:02:42.497Z,18.50
2022-08-17T01:05:21.014Z,17.15
2022-08-17T01:07:52.941Z,18.15
2022-08-17T01:11:00.533Z,16.10
2022-08-17T01:13:16.082Z,16.73
2022-08-17T01:15:48.778Z,17.50
2022-08-17T01:18:17.023Z,19.48
2022-08-17T01:20:50.873Z,18.42
2022-08-17T01:23:21.403Z,17.80
2022-08-17T01:25:59.805Z,20.88
2022-08-17T01:28:53.178Z,18.98
2022-08-17T01:31:18.797Z,20.20
2022-08-17T01:33:46.429Z,19.05
2022-08-17T01:36:14.384Z,18.75
2022-08-17T01:38:42.183Z,18.08
2022-08-17T01:41:13.520Z,19.77
2022-08-17T01:43:57.648Z,20.45
2022-08-17T01:46:31.579Z,21.35
2022-08-17T01:49:01.350Z,20.25
2022-08-17T01:51:33.076Z,20.77
2022-08-17T01:54:07.804Z,22.65
2022-08-17T01:56:39.747Z,19.80
2022-08-17T01:59:07.465Z,21.63
2022-08-17T02:01:35.885Z,19.50
2022-08-17T02:04:05.613Z,20.42
2022-08-17T02:06:52.474Z,20.95
2022-08-17T02:09:25.798Z,17.65
2022-08-17T02:11:56.312Z,20.00
2022-08-17T02:14:25.806Z,19.95
2022-08-17T02:16:54.462Z,18.00
2022-08-17T02:19:22.279Z,19.92
2022-08-17T02:21:51.650Z,19.10
2022-08-17T02:24:59.901Z,18.10
2022-08-17T02:27:22.348Z,21.63
2022-08-17T02:29:50.021Z,19.10
2022-08-17T02:32:27.595Z,21.38
2022-08-17T02:34:57.560Z,19.90
2022-08-17T02:37:26.780Z,20.95
2022-08-17T02:39:57.144Z,21.58
2022-08-17T02:42:33.977Z,21.67
2022-08-17T02:45:03.885Z,21.02
2022-08-17T02:47:31.525Z,21.08
2022-08-17T02:49:59.294Z,20.48
2022-08-17T02:52:43.121Z,19.77
2022-08-17T02:55:23.935Z,23.33
2022-08-17T02:57:53.147Z,22.42
2022-08-17T03:00:30.195Z,22.88
2022-08-17T03:02:57.848Z,24.33
2022-08-17T03:05:28.059Z,23.10
2022-08-17T03:07:56.785Z,22.27
2022-08-17T03:10:25.544Z,23.45
2022-08-17T03:12:54.290Z,23.73
2022-08-17T03:15:28.933Z,22.80
2022-08-17T03:17:57.812Z,22.48
2022-08-17T03:20:27.104Z,23.63
2022-08-17T03:23:01.766Z,24.77
2022-08-17T03:25:36.661Z,23.95
2022-08-17T03:28:07.046Z,27.58
2022-08-17T03:30:36.216Z,25.60
2022-08-17T03:33:06.612Z,26.75
2022-08-17T03:35:36.491Z,23.38
2022-08-17T03:38:04.849Z,22.90
2022-08-17T03:40:55.026Z,21.17
2022-08-17T03:43:22.600Z,23.88
2022-08-17T03:46:19.986Z,21.63
2022-08-17T03:49:17.630Z,22.52
2022-08-17T03:52:04.057Z,25.35
2022-08-17T03:54:50.325Z,24.85
2022-08-17T03:57:19.201Z,26.55
2022-08-17T03:59:47.981Z,25.80
2022-08-17T04:02:19.288Z,24.38
2022-08-17T04:04:47.106Z,25.95
2022-08-17T04:07:14.668Z,24.50
2022-08-17T04:09:43.062Z,23.77
2022-08-17T04:12:11.292Z,23.40
2022-08-17T04:14:52.909Z,24.88
2022-08-17T04:17:24.773Z,25.75
2022-08-17T04:19:53.654Z,25.15
2022-08-17T04:22:30.424Z,27.98
2022-08-17T04:25:06.488Z,29.38
2022-08-17T04:27:34.257Z,23.95
2022-08-17T04:30:02.637Z,26.30
2022-08-17T04:33:03.747Z,25.10
2022-08-17T04:35:24.174Z,24.33
2022-08-17T04:37:52.035Z,26.10
2022-08-17T04:40:39.951Z,29.23
2022-08-17T04:43:18.790Z,25.90
2022-08-17T04:45:55.477Z,26.23
2022-08-17T04:48:36.532Z,26.30
2022-08-17T04:51:10.004Z,28.05
2022-08-17T04:53:43.124Z,26.45
2022-08-17T04:56:16.750Z,24.17
2022-08-17T04:58:46.532Z,28.92
2022-08-17T05:01:15.633Z,26.55
2022-08-17T05:03:44.004Z,27.52
2022-08-17T05:06:11.811Z,24.98
2022-08-17T05:08:40.038Z,25.70
2022-08-17T05:11:08.418Z,26.48
2022-08-17T05:13:36.967Z,26.65
2022-08-17T05:16:04.988Z,28.35
2022-08-17T05:18:33.184Z,27.20
2022-08-17T05:21:02.293Z,27.38
2022-08-17T05:23:37.860Z,26.88
2022-08-17T05:26:26.495Z,28.15
2022-08-17T05:28:59.621Z,31.98
2022-08-17T05:31:29.388Z,30.33
2022-08-17T05:33:57.795Z,31.05
2022-08-17T05:36:42.368Z,30.40
2022-08-17T05:39:16.452Z,31.42
2022-08-17T05:41:47.861Z,29.25
2022-08-17T05:44:16.419Z,31.08
2022-08-17T05:46:49.995Z,33.38
2022-08-17T05:49:22.706Z,33.03
2022-08-17T05:51:56.281Z,29.70
2022-08-17T05:54:32.272Z,31.13
2022-08-17T05:57:28.015Z,32.75
2022-08-17T06:00:33.979Z,30.35
2022-08-17T06:03:40.207Z,30.75
2022-08-17T06:06:34.996Z,35.53
2022-08-17T06:09:14.706Z,33.75
2022-08-17T06:12:00.435Z,32.28
2022-08-17T06:14:55.830Z,32.83
2022-08-17T06:17:27.080Z,33.25
2022-08-17T06:20:03.006Z,34.23
2022-08-17T06:22:36.642Z,35.00
2022-08-17T06:25:34.919Z,37.60
2022-08-17T06:28:13.709Z,36.67
2022-08-17T06:31:00.819Z,34.88
2022-08-17T06:33:36.003Z,37.65
2022-08-17T06:36:29.214Z,34.72
2022-08-17T06:39:24.359Z,33.13
2022-08-17T06:42:00.834Z,34.78
2022-08-17T06:44:43.651Z,38.30
2022-08-17T06:47:28.465Z,34.25
2022-08-17T06:50:37.753Z,43.50
2022-08-17T06:53:22.305Z,44.35
2022-08-17T06:56:06.796Z,43.45
2022-08-17T06:58:37.394Z,46.08
2022-08-17T07:01:09.859Z,50.60
2022-08-17T07:04:05.119Z,46.87
2022-08-17T07:06:52.684Z,47.58
2022-08-17T07:09:26.337Z,53.00
2022-08-17T07:12:03.167Z,48.72
2022-08-17T07:14:36.582Z,50.42
2022-08-17T07:17:15.945Z,48.53
2022-08-17T07:19:47.636Z,55.58
2022-08-17T07:22:28.090Z,49.25
2022-08-17T07:24:59.867Z,56.03
2022-08-17T07:27:31.090Z,50.15
2022-08-17T07:30:17.509Z,50.80
2022-08-17T07:33:08.401Z,53.92
2022-08-17T07:35:43.910Z,49.88
2022-08-17T07:38:25.259Z,55.97
2022-08-17T07:41:05.173Z,53.72
2022-08-17T07:43:41.779Z,54.33
2022-08-17T07:46:53.957Z,55.95
2022-08-17T07:49:39.344Z,55.78
2022-08-17T07:52:48.260Z,63.00
2022-08-17T07:54:59.244Z,64.82
2022-08-17T07:57:32.415Z,64.00
2022-08-17T08:00:00.026Z,67.53
2022-08-17T08:02:34.357Z,67.63
2022-08-17T08:05:29.962Z,65.53
2022-08-17T08:08:36.743Z,65.78
2022-08-17T08:11:11.525Z,66.40
2022-08-17T08:13:43.843Z,63.80
2022-08-17T08:16:17.898Z,64.15
2022-08-17T08:18:54.392Z,68.28
2022-08-17T08:21:44.769Z,65.55
2022-08-17T08:24:34.724Z,58.47
2022-08-17T08:27:25.332Z,59.63
2022-08-17T08:30:12.349Z,57.15
2022-08-17T08:33:09.680Z,55.80
2022-08-17T08:37:14.761Z,56.30
2022-08-17T08:39:10.338Z,57.17
2022-08-17T08:41:48.387Z,59.75
2022-08-17T08:45:00.853Z,52.50
2022-08-17T08:47:44.280Z,55.22
2022-08-17T08:50:38.769Z,55.55
2022-08-17T08:53:19.006Z,56.47
2022-08-17T08:56:05.022Z,53.17
2022-08-17T08:58:42.703Z,48.33
2022-08-17T09:01:21.142Z,52.72
2022-08-17T09:04:24.238Z,48.92
2022-08-17T09:07:26.211Z,44.67
2022-08-17T09:10:14.040Z,44.45
2022-08-17T09:13:09.946Z,43.28
2022-08-17T09:15:46.683Z,45.08
2022-08-17T09:19:02.280Z,38.00
2022-08-17T09:21:13.905Z,44.45
2022-08-17T09:24:14.660Z,41.45
2022-08-17T09:27:13.411Z,40.85
2022-08-17T09:29:49.583Z,39.97
2022-08-17T09:32:22.520Z,36.63
2022-08-17T09:34:54.814Z,34.72
2022-08-17T09:37:26.148Z,35.40
2022-08-17T09:40:17.538Z,34.38
2022-08-17T09:42:56.230Z,35.67
2022-08-17T09:45:32.365Z,35.72
2022-08-17T09:48:07.853Z,33.72
2022-08-17T09:51:03.118Z,36.55
2022-08-17T09:53:31.776Z,34.60
2022-08-17T09:57:18.189Z,33.70
2022-08-17T10:00:16.689Z,31.13
2022-08-17T10:03:09.667Z,28.80
2022-08-17T10:06:07.841Z,32.17
2022-08-17T10:08:55.336Z,32.05
2022-08-17T10:11:51.497Z,30.55
2022-08-17T10:14:57.124Z,31.90
2022-08-17T10:18:04.060Z,29.00
2022-08-17T10:21:15.444Z,25.27
2022-08-17T10:24:04.543Z,26.35
2022-08-17T10:26:55.982Z,28.88
2022-08-17T10:29:49.114Z,27.73
2022-08-17T10:32:40.925Z,30.60
2022-08-17T10:35:20.581Z,31.10
2022-08-17T10:38:27.698Z,28.73
2022-08-17T10:41:13.229Z,31.48
2022-08-17T10:44:37.346Z,28.88
2022-08-17T10:47:11.399Z,30.58
2022-08-17T10:49:47.821Z,27.67
2022-08-17T10:52:27.753Z,27.45
2022-08-17T10:54:58.762Z,27.63
2022-08-17T10:57:26.890Z,26.25
2022-08-17T10:59:56.913Z,27.25
2022-08-17T11:02:54.301Z,26.83
2022-08-17T11:05:43.751Z,26.35
2022-08-17T11:08:26.337Z,25.60
2022-08-17T11:11:12.570Z,26.30
2022-08-17T11:14:17.760Z,24.75
2022-08-17T11:17:09.213Z,24.65
2022-08-17T11:19:51.209Z,26.30
2022-08-17T11:22:37.663Z,24.90
2022-08-17T11:25:38.456Z,27.63
2022-08-17T11:30:48.718Z,20.33
2022-08-17T11:33:36.764Z,22.25
2022-08-17T11:36:24.452Z,21.45
2022-08-17T11:39:20.929Z,22.48
2022-08-17T11:41:56.338Z,19.00
2022-08-17T11:44:51.663Z,21.33
2022-08-17T11:48:23.747Z,23.58
2022-08-17T11:51:13.172Z,25.55
2022-08-17T11:54:14.659Z,25.08
2022-08-17T11:56:51.168Z,24.52
2022-08-17T11:59:46.010Z,25.73
2022-08-17T12:02:27.992Z,25.55
2022-08-17T12:05:17.491Z,24.23
2022-08-17T12:07:51.943Z,24.90
2022-08-17T12:10:23.670Z,21.80
2022-08-17T12:12:54.076Z,22.65
2022-08-17T12:17:57.184Z,23.60
2022-08-17T12:20:40.293Z,23.48
2022-08-17T12:23:17.297Z,21.13
2022-08-17T12:25:59.355Z,24.60
2022-08-17T12:28:34.826Z,21.90
2022-08-17T12:31:27.338Z,21.77
2022-08-17T12:33:55.322Z,21.30
2022-08-17T12:36:25.350Z,21.02
2022-08-17T12:39:14.272Z,18.95
2022-08-17T12:41:47.023Z,17.77
2022-08-17T12:44:16.752Z,19.08
2022-08-17T12:47:20.984Z,16.92
2022-08-17T12:49:52.929Z,19.02
2022-08-17T12:55:06.873Z,18.17
2022-08-17T12:57:42.678Z,17.95
2022-08-17T13:00:18.307Z,19.08
2022-08-17T13:03:05.946Z,16.55
2022-08-17T13:05:55.529Z,14.93
2022-08-17T13:08:33.695Z,14.38
2022-08-17T13:11:11.509Z,13.43
2022-08-17T13:13:43.093Z,15.73
2022-08-17T13:16:14.347Z,14.00
2022-08-17T13:18:41.939Z,13.30
2022-08-17T13:21:27.405Z,14.38
2022-08-17T13:24:13.855Z,13.88
2022-08-17T13:26:46.629Z,13.23
2022-08-17T13:29:39.266Z,14.57
2022-08-17T13:32:13.167Z,15.23
2022-08-17T13:35:14.931Z,13.95
2022-08-17T13:37:40.665Z,13.27
2022-08-17T13:40:10.706Z,13.88
2022-08-17T13:42:52.764Z,12.40
2022-08-17T13:45:36.666Z,10.82
2022-08-17T13:48:11.947Z,10.20
2022-08-17T13:50:57.267Z,9.05
2022-08-17T13:53:50.857Z,8.23
2022-08-17T13:56:37.891Z,8.90
2022-08-17T13:59:13.891Z,8.10
2022-08-17T14:01:52.573Z,7.68
2022-08-17T14:04:29.365Z,7.28
2022-08-17T14:07:00.205Z,7.53
2022-08-17T14:09:37.396Z,7.55
2022-08-17T14:12:10.674Z,6.72
2022-08-17T14:14:39.784Z,6.95
2022-08-17T14:17:07.966Z,6.78
2022-08-17T14:19:36.562Z,7.68
2022-08-17T14:22:08.839Z,6.68
2022-08-17T14:24:44.589Z,6.72
2022-08-17T14:27:12.797Z,7.43
2022-08-17T14:29:41.833Z,6.47
2022-08-17T14:32:20.441Z,6.10
2022-08-17T14:34:49.645Z,7.07
2022-08-17T14:37:19.455Z,7.05
2022-08-17T14:39:47.819Z,7.05
2022-08-17T14:42:17.819Z,6.60
2022-08-17T14:44:45.839Z,5.82
2022-08-17T14:47:13.910Z,6.28
2022-08-17T14:49:42.673Z,7.13
2022-08-17T14:52:13.533Z,7.30
2022-08-17T14:54:45.829Z,6.82
2022-08-17T14:57:34.023Z,8.23
2022-08-17T15:00:03.011Z,8.43
2022-08-17T15:02:31.309Z,8.13
2022-08-17T15:05:04.804Z,8.88
2022-08-17T15:07:32.558Z,9.20
2022-08-17T15:10:01.420Z,8.00
2022-08-17T15:12:34.093Z,10.02
2022-08-17T15:15:05.337Z,10.30
2022-08-17T15:17:44.446Z,8.88
2022-08-17T15:20:15.802Z,8.70
2022-08-17T15:22:45.311Z,8.45
2022-08-17T15:25:13.231Z,7.88
2022-08-17T15:27:41.287Z,8.98
2022-08-17T15:30:10.074Z,8.48
2022-08-17T15:32:40.962Z,7.55
2022-08-17T15:35:19.314Z,7.63
2022-08-17T15:38:11.817Z,7.90
2022-08-17T15:40:46.496Z,7.53
2022-08-17T15:43:27.338Z,7.40
2022-08-17T15:46:12.587Z,7.32
2022-08-17T15:48:42.619Z,6.85
2022-08-17T15:51:22.003Z,6.45
2022-08-17T15:53:59.290Z,6.35
2022-08-17T15:56:32.802Z,6.47
2022-08-17T15:59:00.518Z,7.40
2022-08-17T16:02:33.627Z,6.97
2022-08-17T16:04:30.545Z,6.95
2022-08-17T16:07:00.343Z,6.90
2022-08-17T16:09:28.655Z,6.88
2022-08-17T16:11:56.764Z,6.65
2022-08-17T16:14:33.946Z,9.75
2022-08-17T16:17:04.806Z,7.57
2022-08-17T16:19:52.818Z,6.68
2022-08-17T16:22:41.071Z,7.68
2022-08-17T16:25:51.962Z,7.75
2022-08-17T16:28:18.450Z,7.22
2022-08-17T16:30:46.234Z,6.70
2022-08-17T16:33:15.136Z,6.53
2022-08-17T16:35:42.968Z,7.03
2022-08-17T16:38:12.422Z,7.13
2022-08-17T16:40:42.446Z,7.13
2022-08-17T16:43:12.023Z,7.00
2022-08-17T16:45:40.824Z,7.28
2022-08-17T16:48:09.923Z,7.57
2022-08-17T16:50:37.658Z,8.15
2022-08-17T16:53:18.252Z,7.32
2022-08-17T16:55:48.060Z,8.50
2022-08-17T16:58:16.186Z,7.77
2022-08-17T17:00:45.267Z,6.40
2022-08-17T17:03:19.215Z,7.70
2022-08-17T17:06:15.744Z,7.63
2022-08-17T17:08:57.390Z,7.63
2022-08-17T17:11:31.251Z,7.80
2022-08-17T17:14:03.030Z,8.43
2022-08-17T17:16:33.224Z,9.52
2022-08-17T17:19:05.171Z,8.02
2022-08-17T17:22:03.795Z,8.82
2022-08-17T17:24:50.354Z,9.15
2022-08-17T17:27:23.786Z,9.13
2022-08-17T17:30:24.265Z,8.40
2022-08-17T17:33:04.914Z,9.60
2022-08-17T17:38:14.164Z,8.98
2022-08-17T17:40:45.752Z,9.45
2022-08-17T17:43:37.680Z,10.05
2022-08-17T17:46:27.293Z,9.82
2022-08-17T17:48:58.011Z,10.90
2022-08-17T17:52:03.568Z,10.48
2022-08-17T17:54:42.821Z,11.82
2022-08-17T17:57:32.561Z,11.90
2022-08-17T18:00:00.416Z,12.30
2022-08-17T18:02:54.895Z,11.68
2022-08-17T18:05:53.160Z,12.13
2022-08-17T18:08:49.431Z,11.85
2022-08-17T18:11:33.085Z,14.68
2022-08-17T18:14:24.898Z,12.00
2022-08-17T18:16:56.134Z,11.93
2022-08-17T18:19:25.812Z,14.25
2022-08-17T18:22:02.905Z,13.05
2022-08-17T18:24:33.739Z,11.77
2022-08-17T18:29:47.154Z,13.45
2022-08-17T18:32:29.252Z,14.80
2022-08-17T18:35:08.754Z,13.43
2022-08-17T18:37:45.057Z,14.90
2022-08-17T18:40:21.282Z,16.58
2022-08-17T18:43:03.066Z,14.50
2022-08-17T18:45:46.577Z,14.02
2022-08-17T18:48:33.392Z,12.98
2022-08-17T18:51:26.336Z,13.50
2022-08-17T18:54:18.275Z,15.10
2022-08-17T18:56:59.951Z,16.33
2022-08-17T18:59:29.560Z,14.82
2022-08-17T19:02:03.246Z,16.48
2022-08-17T19:04:53.304Z,15.60
2022-08-17T19:07:31.583Z,15.30
2022-08-17T19:10:08.858Z,15.65
2022-08-17T19:13:12.543Z,14.73
2022-08-17T19:16:13.717Z,14.25
2022-08-17T19:18:48.358Z,15.98
2022-08-17T19:21:33.324Z,15.85
2022-08-17T19:24:19.368Z,14.90
2022-08-17T19:26:56.336Z,15.00
2022-08-17T19:29:36.940Z,16.33
2022-08-17T19:32:07.604Z,15.43
2022-08-17T19:34:37.825Z,14.32
2022-08-17T19:37:39.000Z,14.95
2022-08-17T19:40:24.474Z,14.50
2022-08-17T19:43:17.013Z,13.77
2022-08-17T19:45:56.233Z,14.05
2022-08-17T19:48:36.103Z,13.98
2022-08-17T19:51:17.834Z,14.05
2022-08-17T19:54:06.779Z,14.10
2022-08-17T19:57:02.420Z,13.00
2022-08-17T19:59:41.301Z,13.60
2022-08-17T20:02:48.551Z,12.90
2022-08-17T20:05:44.217Z,13.60
2022-08-17T20:08:28.127Z,14.85
2022-08-17T20:11:18.574Z,14.35
2022-08-17T20:14:11.893Z,14.32
2022-08-17T20:16:39.375Z,14.93
2022-08-17T20:19:27.784Z,13.45
2022-08-17T20:22:17.546Z,14.00
2022-08-17T20:24:51.012Z,15.95
2022-08-17T20:27:48.449Z,15.00
2022-08-17T20:30:23.260Z,16.02
2022-08-17T20:32:56.107Z,14.65
2022-08-17T20:35:32.875Z,16.05
2022-08-17T20:38:12.930Z,15.70
2022-08-17T20:41:00.992Z,15.50
2022-08-17T20:43:34.410Z,16.13
2022-08-17T20:46:26.793Z,15.95
2022-08-17T20:48:59.545Z,16.17
2022-08-17T20:51:29.851Z,15.10
2022-08-17T20:54:06.731Z,17.50
2022-08-17T20:56:43.465Z,20.42
2022-08-17T20:59:28.495Z,18.40
2022-08-17T21:02:18.604Z,15.95
2022-08-17T21:04:54.827Z,17.70
2022-08-17T21:07:52.379Z,18.77
2022-08-17T21:10:26.073Z,17.77
2022-08-17T21:13:01.708Z,16.17
2022-08-17T21:16:08.855Z,17.10
2022-08-17T21:19:02.456Z,17.73
2022-08-17T21:22:10.522Z,19.40
2022-08-17T21:25:23.018Z,17.95
2022-08-17T21:28:10.689Z,18.40
2022-08-17T21:30:40.998Z,18.73
2022-08-17T21:33:29.168Z,17.45
2022-08-17T21:35:59.809Z,17.25
2022-08-17T21:39:02.530Z,16.75
2022-08-17T21:41:34.233Z,17.67
2022-08-17T21:44:13.353Z,17.55
2022-08-17T21:46:46.742Z,17.15
2022-08-17T21:49:18.321Z,17.20
2022-08-17T21:51:54.421Z,17.73
2022-08-17T21:54:38.840Z,17.42
2022-08-17T21:57:16.457Z,15.38
2022-08-17T21:59:44.966Z,17.33
2022-08-17T22:02:21.551Z,16.23
2022-08-17T22:04:59.628Z,16.13
2022-08-17T22:07:38.312Z,15.98
2022-08-17T22:10:26.195Z,16.77
2022-08-17T22:13:19.759Z,15.23
2022-08-17T22:16:27.855Z,16.23
2022-08-17T22:18:59.016Z,15.55
2022-08-17T22:21:27.315Z,15.33
2022-08-17T22:24:15.195Z,16.15
2022-08-17T22:27:01.554Z,15.90
2022-08-17T22:29:57.141Z,16.35
2022-08-17T22:32:34.992Z,15.85
2022-08-17T22:35:35.745Z,16.30
2022-08-17T22:38:18.792Z,16.48
2022-08-17T22:40:55.311Z,16.35
2022-08-17T22:43:28.833Z,15.45
2022-08-17T22:45:59.764Z,16.63
2022-08-17T22:48:29.383Z,15.65
2022-08-17T22:51:12.220Z,15.60
2022-08-17T22:54:08.144Z,16.83
2022-08-17T22:56:56.030Z,16.63
2022-08-17T22:59:54.622Z,14.82
2022-08-17T23:02:26.153Z,15.73
2022-08-17T23:05:13.797Z,16.25
2022-08-17T23:07:43.313Z,16.35
2022-08-17T23:10:12.890Z,16.33
2022-08-17T23:12:40.911Z,16.67
2022-08-17T23:15:15.425Z,14.45
2022-08-17T23:17:45.357Z,15.30
2022-08-17T23:20:15.202Z,14.87
2022-08-17T23:22:51.677Z,14.27
2022-08-17T23:25:32.300Z,14.40
2022-08-17T23:28:01.919Z,14.18
2022-08-17T23:30:31.564Z,14.95
2022-08-17T23:33:05.974Z,14.18
2022-08-17T23:35:39.824Z,13.18
2022-08-17T23:38:13.026Z,13.90
2022-08-17T23:40:41.210Z,13.45
2022-08-17T23:43:25.279Z,12.13
2022-08-17T23:45:55.183Z,11.88
2022-08-17T23:48:27.816Z,11.75
2022-08-17T23:51:05.847Z,11.70
2022-08-17T23:53:36.357Z,10.90
2022-08-17T23:56:10.450Z,11.43
2022-08-17T23:58:42.244Z,10.60
